createdAt,value
2022-10-01T00:02:07.022Z,31.63
2022-10-01T00:04:37.960Z,16.95
2022-10-01T00:07:09.644Z,19.70
2022-10-01T00:09:37.371Z,16.13
2022-10-01T00:12:05.015Z,16.23
2022-10-01T00:14:33.308Z,16.95
2022-10-01T00:17:01.053Z,15.80
2022-10-01T00:19:29.398Z,17.63
2022-10-01T00:21:57.091Z,17.40
2022-10-01T00:24:24.680Z,17.15
2022-10-01T00:26:52.509Z,16.23
2022-10-01T00:29:20.095Z,16.50
2022-10-01T00:31:48.360Z,16.63
2022-10-01T00:34:15.998Z,18.33
2022-10-01T00:36:43.591Z,16.60
2022-10-01T00:39:11.647Z,17.95
2022-10-01T00:41:39.551Z,14.93
2022-10-01T00:44:38.039Z,15.93
2022-10-01T00:47:30.407Z,15.82
2022-10-01T00:50:34.233Z,14.75
2022-10-01T00:53:05.721Z,14.18
2022-10-01T00:58:03.290Z,14.30
2022-10-01T01:00:31.149Z,16.33
2022-10-01T01:02:59.006Z,15.18
2022-10-01T01:05:26.956Z,15.23
2022-10-01T01:07:54.500Z,16.08
2022-10-01T01:10:44.197Z,15.38
2022-10-01T01:13:13.676Z,15.65
2022-10-01T01:15:59.103Z,15.75
2022-10-01T01:18:41.779Z,15.88
2022-10-01T01:21:12.213Z,16.17
2022-10-01T01:23:59.590Z,16.55
2022-10-01T01:26:35.267Z,16.33
2022-10-01T01:29:06.878Z,16.75
2022-10-01T01:31:38.132Z,18.02
2022-10-01T01:34:12.486Z,16.42
2022-10-01T03:02:50.105Z,14.57
2022-10-01T03:05:17.934Z,14.88
2022-10-01T03:07:45.960Z,14.82
2022-10-01T03:10:16.258Z,15.25
2022-10-01T03:12:45.420Z,13.73
2022-10-01T03:15:14.215Z,17.20
2022-10-01T03:17:41.758Z,15.80
2022-10-01T03:20:09.625Z,15.48
2022-10-01T03:22:37.955Z,14.35
2022-10-01T03:25:05.966Z,16.50
2022-10-01T03:27:34.302Z,16.95
2022-10-01T03:30:01.942Z,17.05
2022-10-01T03:32:29.687Z,17.05
2022-10-01T03:34:57.255Z,16.02
2022-10-01T03:37:24.983Z,18.17
2022-10-01T03:39:52.599Z,19.75
2022-10-01T03:42:20.123Z,17.25
2022-10-01T03:44:48.630Z,17.77
2022-10-01T03:47:16.161Z,20.13
2022-10-01T03:49:43.769Z,16.83
2022-10-01T03:52:11.372Z,19.95
2022-10-01T03:54:39.508Z,18.55
2022-10-01T03:57:08.755Z,20.17
2022-10-01T03:59:36.894Z,15.55
2022-10-01T04:02:04.511Z,25.20
2022-10-01T04:04:32.774Z,33.30
2022-10-01T04:07:00.483Z,17.27
2022-10-01T04:09:28.225Z,22.52
2022-10-01T04:11:56.128Z,18.92
2022-10-01T04:14:24.799Z,24.08
2022-10-01T04:16:52.852Z,22.13
2022-10-01T04:19:20.832Z,28.70
2022-10-01T04:21:48.365Z,19.58
2022-10-01T04:24:17.319Z,21.80
2022-10-01T04:26:44.892Z,25.52
2022-10-01T04:29:12.369Z,24.73
2022-10-01T04:31:40.482Z,24.02
2022-10-01T04:34:08.124Z,25.70
2022-10-01T04:36:35.723Z,28.70
2022-10-01T04:39:04.239Z,28.00
2022-10-01T04:41:32.105Z,28.15
2022-10-01T04:44:00.293Z,25.75
2022-10-01T04:46:30.395Z,24.35
2022-10-01T04:48:58.291Z,23.80
2022-10-01T04:51:26.186Z,22.08
2022-10-01T04:53:53.996Z,20.17
2022-10-01T04:56:21.601Z,18.08
2022-10-01T04:58:49.313Z,17.58
2022-10-01T05:01:16.838Z,18.02
2022-10-01T05:03:44.429Z,17.65
2022-10-01T05:06:12.090Z,17.17
2022-10-01T05:08:39.637Z,17.73
2022-10-01T05:11:07.747Z,17.23
2022-10-01T05:13:35.313Z,16.70
2022-10-01T05:16:03.913Z,16.77
2022-10-01T05:18:32.544Z,16.98
2022-10-01T05:21:05.384Z,19.42
2022-10-01T05:23:33.484Z,16.88
2022-10-01T05:26:01.036Z,16.10
2022-10-01T05:28:29.257Z,14.38
2022-10-01T05:31:00.523Z,13.70
2022-10-01T05:33:29.795Z,12.95
2022-10-01T05:35:57.952Z,12.85
2022-10-01T05:38:26.175Z,11.73
2022-10-01T05:40:53.771Z,12.30
2022-10-01T05:43:21.275Z,14.52
2022-10-01T05:45:49.858Z,12.13
2022-10-01T05:48:17.557Z,12.23
2022-10-01T05:50:50.067Z,13.85
2022-10-01T05:53:17.827Z,15.30
2022-10-01T05:55:45.409Z,12.00
2022-10-01T05:58:13.801Z,13.93
2022-10-01T06:00:41.932Z,10.80
2022-10-01T06:03:12.879Z,13.68
2022-10-01T06:05:40.961Z,10.63
2022-10-01T06:08:09.905Z,12.77
2022-10-01T06:10:38.075Z,13.73
2022-10-01T06:13:05.773Z,10.63
2022-10-01T06:15:39.876Z,17.98
2022-10-01T06:18:08.378Z,12.65
2022-10-01T06:20:36.689Z,8.38
2022-10-01T06:23:11.426Z,9.27
2022-10-01T06:25:42.893Z,9.23
2022-10-01T06:28:11.931Z,7.95
2022-10-01T06:30:40.231Z,14.73
2022-10-01T06:33:09.465Z,9.07
2022-10-01T06:35:43.793Z,9.57
2022-10-01T06:38:11.581Z,8.95
2022-10-01T06:40:39.482Z,9.20
2022-10-01T06:43:08.501Z,11.75
2022-10-01T06:45:43.682Z,11.50
2022-10-01T06:48:15.707Z,14.18
2022-10-01T06:50:44.049Z,35.53
2022-10-01T06:53:12.230Z,27.35
2022-10-01T06:55:39.923Z,10.55
2022-10-01T06:58:10.300Z,9.30
2022-10-01T07:00:39.233Z,9.10
2022-10-01T07:03:11.044Z,10.45
2022-10-01T07:05:39.137Z,14.30
2022-10-01T07:08:06.823Z,10.35
2022-10-01T07:10:38.537Z,16.60
2022-10-01T07:13:07.746Z,11.10
2022-10-01T07:15:35.291Z,10.85
2022-10-01T07:18:03.305Z,13.95
2022-10-01T07:20:39.639Z,10.15
2022-10-01T07:23:08.824Z,11.20
2022-10-01T07:25:38.799Z,13.25
2022-10-01T07:28:07.669Z,12.07
2022-10-01T07:30:35.337Z,12.57
2022-10-01T07:33:03.039Z,14.65
2022-10-01T07:35:30.524Z,11.57
2022-10-01T07:37:58.068Z,12.88
2022-10-01T07:40:27.667Z,13.25
2022-10-01T07:45:24.399Z,12.35
2022-10-01T07:47:56.511Z,12.85
2022-10-01T07:50:25.467Z,11.77
2022-10-01T07:52:56.716Z,12.38
2022-10-01T07:55:27.061Z,13.20
2022-10-01T07:57:55.582Z,14.48
2022-10-01T08:00:24.598Z,12.35
2022-10-01T08:02:53.819Z,16.25
2022-10-01T08:05:25.579Z,15.15
2022-10-01T08:07:54.203Z,23.17
2022-10-01T08:10:23.397Z,12.70
2022-10-01T08:12:51.304Z,28.50
2022-10-01T08:15:18.881Z,12.65
2022-10-01T08:17:46.501Z,15.50
2022-10-01T08:20:14.105Z,11.35
2022-10-01T08:22:43.049Z,11.98
2022-10-01T08:25:10.527Z,9.63
2022-10-01T08:27:42.075Z,9.27
2022-10-01T08:30:10.040Z,17.48
2022-10-01T08:32:37.577Z,15.20
2022-10-01T08:35:07.927Z,11.48
2022-10-01T08:37:35.789Z,9.15
2022-10-01T08:40:03.492Z,10.23
2022-10-01T08:42:53.707Z,9.88
2022-10-01T08:45:29.790Z,22.42
2022-10-01T08:48:06.042Z,13.95
2022-10-01T08:50:41.470Z,13.32
2022-10-01T08:53:15.427Z,13.57
2022-10-01T08:55:43.285Z,14.80
2022-10-01T08:58:12.689Z,14.65
2022-10-01T09:00:42.107Z,13.00
2022-10-01T09:03:12.469Z,13.48
2022-10-01T09:05:47.941Z,12.02
2022-10-01T09:08:43.841Z,10.05
2022-10-01T09:11:45.391Z,10.30
2022-10-01T09:14:19.495Z,7.53
2022-10-01T09:17:00.462Z,6.78
2022-10-01T09:19:33.965Z,6.90
2022-10-01T09:22:06.453Z,8.45
2022-10-01T09:24:42.269Z,9.23
2022-10-01T09:27:15.932Z,28.70
2022-10-01T09:29:55.545Z,7.20
2022-10-01T09:32:25.167Z,7.05
2022-10-01T09:34:52.876Z,7.25
2022-10-01T09:37:28.635Z,7.10
2022-10-01T09:40:23.740Z,5.88
2022-10-01T09:42:52.174Z,6.00
2022-10-01T09:45:25.126Z,6.70
2022-10-01T09:47:54.550Z,6.80
2022-10-01T09:50:48.987Z,6.05
2022-10-01T09:53:18.440Z,5.72
2022-10-01T09:55:48.134Z,6.38
2022-10-01T09:58:18.257Z,5.88
2022-10-01T10:00:45.867Z,6.32
2022-10-01T10:03:22.948Z,6.15
2022-10-01T10:05:50.989Z,6.15
2022-10-01T10:08:27.994Z,6.95
2022-10-01T10:11:02.819Z,7.03
2022-10-01T10:13:40.157Z,7.43
2022-10-01T10:16:29.125Z,6.72
2022-10-01T10:18:59.016Z,7.50
2022-10-01T10:21:28.796Z,6.53
2022-10-01T10:24:01.183Z,9.05
2022-10-01T10:26:34.276Z,7.88
2022-10-01T10:29:02.887Z,10.07
2022-10-01T10:31:40.836Z,10.50
2022-10-01T10:34:14.132Z,7.32
2022-10-01T10:36:41.953Z,8.85
2022-10-01T10:39:22.232Z,13.23
2022-10-01T10:41:49.793Z,10.30
2022-10-01T10:44:21.311Z,17.85
2022-10-01T10:46:49.350Z,24.23
2022-10-01T10:49:21.916Z,11.80
2022-10-01T10:51:54.217Z,16.70
2022-10-01T10:54:24.902Z,14.23
2022-10-01T10:57:22.736Z,15.13
2022-10-01T11:00:18.734Z,21.30
2022-10-01T11:02:59.728Z,25.02
2022-10-01T11:05:30.105Z,13.77
2022-10-01T11:07:59.963Z,16.00
2022-10-01T11:10:27.553Z,13.00
2022-10-01T11:13:01.207Z,16.38
2022-10-01T11:15:45.828Z,13.70
2022-10-01T11:18:47.514Z,17.08
2022-10-01T11:21:39.443Z,13.02
2022-10-01T11:24:15.963Z,12.57
2022-10-01T11:27:01.472Z,14.55
2022-10-01T11:29:53.103Z,11.27
2022-10-01T11:33:00.753Z,11.23
2022-10-01T11:35:49.736Z,11.20
2022-10-01T11:38:17.236Z,11.68
2022-10-01T11:41:06.413Z,11.73
2022-10-01T11:43:45.047Z,12.70
2022-10-01T11:46:14.590Z,11.52
2022-10-01T11:48:46.108Z,12.05
2022-10-01T11:51:16.408Z,12.65
2022-10-01T11:53:55.107Z,14.45
2022-10-01T11:56:45.466Z,11.27
2022-10-01T11:59:20.412Z,11.07
2022-10-01T12:02:26.980Z,15.05
2022-10-01T12:05:07.755Z,12.90
2022-10-01T12:07:55.472Z,12.30
2022-10-01T12:10:30.665Z,13.43
2022-10-01T12:13:07.514Z,15.75
2022-10-01T12:15:58.409Z,14.45
2022-10-01T12:18:31.101Z,13.85
2022-10-01T12:21:03.348Z,19.13
2022-10-01T12:23:52.357Z,14.63
2022-10-01T12:26:38.731Z,17.88
2022-10-01T12:29:21.369Z,14.60
2022-10-01T12:31:51.474Z,13.93
2022-10-01T12:34:36.882Z,18.00
2022-10-01T12:37:33.283Z,18.30
2022-10-01T12:40:10.430Z,16.73
2022-10-01T12:42:37.962Z,33.53
2022-10-01T12:45:25.878Z,18.10
2022-10-01T12:48:19.605Z,15.10
2022-10-01T12:51:21.864Z,18.48
2022-10-01T12:54:21.362Z,20.48
2022-10-01T12:57:10.685Z,17.65
2022-10-01T12:59:59.173Z,17.65
2022-10-01T13:02:52.143Z,16.02
2022-10-01T13:05:41.494Z,16.63
2022-10-01T13:08:18.123Z,18.60
2022-10-01T13:11:03.670Z,17.60
2022-10-01T13:13:34.980Z,19.92
2022-10-01T13:16:27.608Z,22.13
2022-10-01T13:19:17.829Z,32.95
2022-10-01T13:21:57.637Z,25.60
2022-10-01T13:24:49.563Z,24.27
2022-10-01T13:27:39.604Z,25.25
2022-10-01T13:30:16.785Z,20.65
2022-10-01T13:32:53.682Z,23.50
2022-10-01T13:35:35.900Z,23.92
2022-10-01T13:38:17.586Z,22.13
2022-10-01T13:43:20.107Z,23.43
2022-10-01T13:45:49.674Z,25.50
2022-10-01T13:48:23.726Z,22.52
2022-10-01T13:50:58.976Z,45.88
2022-10-01T13:53:26.778Z,32.55
2022-10-01T13:55:54.564Z,22.42
2022-10-01T13:58:31.738Z,23.30
2022-10-01T14:01:01.459Z,18.25
2022-10-01T14:03:33.779Z,18.42
2022-10-01T14:06:03.689Z,18.92
2022-10-01T14:08:38.672Z,20.35
2022-10-01T14:11:29.686Z,18.17
2022-10-01T14:16:46.010Z,18.08
2022-10-01T14:19:20.472Z,18.83
2022-10-01T14:22:16.457Z,18.98
2022-10-01T14:24:59.327Z,18.25
2022-10-01T14:27:35.227Z,17.92
2022-10-01T14:30:09.785Z,18.55
2022-10-01T14:32:59.153Z,18.10
2022-10-01T14:35:59.305Z,19.08
2022-10-01T14:38:27.009Z,18.08
2022-10-01T14:40:54.726Z,19.88
2022-10-01T14:43:23.931Z,19.42
2022-10-01T14:45:54.053Z,19.80
2022-10-01T14:48:23.079Z,20.60
2022-10-01T14:50:53.329Z,20.70
2022-10-01T14:53:22.834Z,22.00
2022-10-01T14:55:55.612Z,22.45
2022-10-01T14:58:33.416Z,20.35
2022-10-01T15:01:02.325Z,22.13
2022-10-01T15:03:39.435Z,24.00
2022-10-01T15:06:15.254Z,22.98
2022-10-01T15:08:45.274Z,23.00
2022-10-01T15:11:28.493Z,26.23
2022-10-01T15:14:01.793Z,24.40
2022-10-01T15:16:29.927Z,23.77
2022-10-01T15:19:02.247Z,23.65
2022-10-01T15:21:38.432Z,23.20
2022-10-01T15:24:26.018Z,23.45
2022-10-01T15:26:54.197Z,24.20
2022-10-01T15:29:21.860Z,24.00
2022-10-01T15:31:50.264Z,24.77
2022-10-01T15:34:19.320Z,24.30
2022-10-01T15:36:48.294Z,24.73
2022-10-01T15:39:25.627Z,24.27
2022-10-01T15:41:53.567Z,25.90
2022-10-01T15:44:38.453Z,24.83
2022-10-01T15:47:41.499Z,24.17
2022-10-01T15:50:09.027Z,24.98
2022-10-01T15:52:52.390Z,24.48
2022-10-01T15:55:24.174Z,25.25
2022-10-01T15:57:56.617Z,24.75
2022-10-01T16:00:26.654Z,23.17
2022-10-01T16:02:55.113Z,24.27
2022-10-01T16:05:25.026Z,27.48
2022-10-01T16:07:56.367Z,35.97
2022-10-01T16:10:38.063Z,43.90
2022-10-01T16:13:41.359Z,33.75
2022-10-01T16:16:29.681Z,136.80
2022-10-01T16:19:22.880Z,139.20
2022-10-01T16:22:37.668Z,29.73
2022-10-01T16:25:28.737Z,46.05
2022-10-01T16:28:04.710Z,31.55
2022-10-01T16:30:34.039Z,35.72
2022-10-01T16:33:02.595Z,31.00
2022-10-01T16:35:35.988Z,28.70
2022-10-01T16:38:09.773Z,29.30
2022-10-01T16:40:42.382Z,29.10
2022-10-01T16:43:18.637Z,27.55
2022-10-01T16:45:46.414Z,27.83
2022-10-01T16:48:19.721Z,28.13
2022-10-01T16:50:47.606Z,27.50
2022-10-01T16:53:16.840Z,28.77
2022-10-01T16:55:44.827Z,33.10
2022-10-01T16:58:13.093Z,47.10
2022-10-01T17:00:40.814Z,54.17
2022-10-01T17:03:14.257Z,62.50
2022-10-01T17:05:42.444Z,73.80
2022-10-01T17:08:13.069Z,101.93
2022-10-01T17:10:53.830Z,77.15
2022-10-01T17:13:23.125Z,83.07
2022-10-01T17:15:51.919Z,50.55
2022-10-01T17:18:19.858Z,62.92
2022-10-01T17:20:47.720Z,33.22
2022-10-01T17:23:16.837Z,32.50
2022-10-01T17:25:45.977Z,28.95
2022-10-01T17:28:18.076Z,28.60
2022-10-01T17:30:47.817Z,30.73
2022-10-01T17:33:16.641Z,28.80
2022-10-01T17:35:45.897Z,30.00
2022-10-01T17:38:13.838Z,31.60
2022-10-01T17:40:42.347Z,30.23
2022-10-01T17:43:11.616Z,29.17
2022-10-01T17:45:39.435Z,27.80
2022-10-01T17:48:07.061Z,29.23
2022-10-01T17:50:34.772Z,29.08
2022-10-01T17:53:02.393Z,29.40
2022-10-01T17:55:30.134Z,28.15
2022-10-01T17:57:57.907Z,29.90
2022-10-01T18:00:25.514Z,29.92
2022-10-01T18:02:53.903Z,29.80
2022-10-01T18:05:21.612Z,35.22
2022-10-01T18:07:51.730Z,34.92
2022-10-01T18:10:19.387Z,31.98
2022-10-01T18:12:47.051Z,36.92
2022-10-01T18:15:14.708Z,31.08
2022-10-01T18:17:43.647Z,29.83
2022-10-01T18:20:14.220Z,29.85
2022-10-01T18:22:42.080Z,36.60
2022-10-01T18:25:10.075Z,37.55
2022-10-01T18:27:38.431Z,37.22
2022-10-01T18:30:06.713Z,36.47
2022-10-01T18:32:41.237Z,34.47
2022-10-01T18:35:26.114Z,34.88
2022-10-01T18:37:56.052Z,35.38
2022-10-01T18:40:27.854Z,36.03
2022-10-01T18:43:13.181Z,39.47
2022-10-01T18:45:41.241Z,40.47
2022-10-01T18:48:16.879Z,56.30
2022-10-01T18:51:10.434Z,48.75
2022-10-01T18:53:53.561Z,53.40
2022-10-01T18:56:23.208Z,56.67
2022-10-01T18:59:09.196Z,54.60
2022-10-01T19:01:39.993Z,55.28
2022-10-01T19:04:16.411Z,60.70
2022-10-01T19:06:49.005Z,53.47
2022-10-01T19:09:17.420Z,49.97
2022-10-01T19:12:00.115Z,49.90
2022-10-01T19:14:38.638Z,47.50
2022-10-01T19:17:15.632Z,49.03
2022-10-01T19:20:10.579Z,46.42
2022-10-01T19:23:28.418Z,48.50
2022-10-01T19:26:05.779Z,49.70
2022-10-01T19:28:57.743Z,47.95
2022-10-01T19:31:28.033Z,48.72
2022-10-01T19:34:24.882Z,47.60
2022-10-01T19:36:59.949Z,48.45
2022-10-01T19:39:30.089Z,50.60
2022-10-01T19:42:13.289Z,50.70
2022-10-01T19:45:04.666Z,60.55
2022-10-01T19:47:41.818Z,65.07
2022-10-01T19:50:33.951Z,65.45
2022-10-01T19:53:02.454Z,65.05
2022-10-01T19:55:38.295Z,61.85
2022-10-01T19:58:18.308Z,51.85
2022-10-01T20:00:48.121Z,47.10
2022-10-01T20:03:34.517Z,43.03
2022-10-01T20:06:14.056Z,43.20
2022-10-01T20:08:47.266Z,39.97
2022-10-01T20:11:32.112Z,42.88
2022-10-01T20:14:35.236Z,46.00
2022-10-01T20:17:06.652Z,46.58
2022-10-01T20:20:04.440Z,51.55
2022-10-01T20:22:34.945Z,50.22
2022-10-01T20:25:12.672Z,48.13
2022-10-01T20:27:52.406Z,47.60
2022-10-01T20:30:20.865Z,46.42
2022-10-01T20:33:00.841Z,48.40
2022-10-01T20:35:51.637Z,47.90
2022-10-01T20:38:21.069Z,46.27
2022-10-01T20:41:15.741Z,45.35
2022-10-01T20:44:01.829Z,45.83
2022-10-01T20:46:34.241Z,48.70
2022-10-01T20:49:28.173Z,44.47
2022-10-01T20:52:02.678Z,40.67
2022-10-01T20:54:39.397Z,42.30
2022-10-01T20:57:24.546Z,45.17
2022-10-01T20:59:53.803Z,43.35
2022-10-01T21:02:26.774Z,39.58
2022-10-01T21:05:09.739Z,38.70
2022-10-01T21:07:44.956Z,37.45
2022-10-01T21:10:33.506Z,36.58
2022-10-01T21:13:17.507Z,38.10
2022-10-01T21:16:07.096Z,39.30
2022-10-01T21:19:16.431Z,38.92
2022-10-01T21:21:47.298Z,39.00
2022-10-01T21:24:50.867Z,38.50
2022-10-01T21:27:21.353Z,39.28
2022-10-01T21:30:05.705Z,39.70
2022-10-01T21:33:31.745Z,38.03
2022-10-01T21:36:07.890Z,36.67
2022-10-01T21:38:41.181Z,33.92
2022-10-01T21:41:14.684Z,35.78
2022-10-01T21:44:02.512Z,35.17
2022-10-01T21:46:33.468Z,34.45
2022-10-01T21:49:18.929Z,31.25
2022-10-01T21:52:10.773Z,28.98
2022-10-01T21:55:16.282Z,27.58
2022-10-01T21:57:53.796Z,27.35
2022-10-01T22:00:25.241Z,25.20
2022-10-01T22:05:38.800Z,22.70
2022-10-01T22:08:15.162Z,22.88
2022-10-01T22:10:48.909Z,22.95
2022-10-01T22:13:22.131Z,23.15
2022-10-01T22:15:52.432Z,21.42
2022-10-01T22:18:34.473Z,20.92
2022-10-01T22:21:03.250Z,21.85
2022-10-01T22:23:30.746Z,21.90
2022-10-01T22:26:01.395Z,20.67
2022-10-01T22:28:39.046Z,20.92
2022-10-01T22:31:07.067Z,21.88
2022-10-01T22:33:40.609Z,21.65
2022-10-01T22:36:13.804Z,22.77
2022-10-01T22:38:48.092Z,23.23
2022-10-01T22:41:47.422Z,21.80
2022-10-01T22:44:19.662Z,22.13
2022-10-01T22:47:21.752Z,22.23
2022-10-01T22:50:12.660Z,23.00
2022-10-01T22:52:53.063Z,22.33
2022-10-01T22:55:38.802Z,22.55
2022-10-01T22:58:41.258Z,21.17
2022-10-01T23:01:30.394Z,18.48
2022-10-01T23:04:22.351Z,18.30
2022-10-01T23:07:06.524Z,18.40
2022-10-01T23:10:00.192Z,18.42
2022-10-01T23:12:42.999Z,17.83
2022-10-01T23:15:32.249Z,17.15
2022-10-01T23:18:05.771Z,18.42
2022-10-01T23:20:39.195Z,18.10
2022-10-01T23:23:28.533Z,19.00
2022-10-01T23:26:10.162Z,20.02
2022-10-01T23:29:01.278Z,23.00
2022-10-01T23:31:35.174Z,24.33
2022-10-01T23:34:25.232Z,25.50
2022-10-01T23:37:14.263Z,27.77
2022-10-01T23:39:47.577Z,27.42
2022-10-01T23:42:23.101Z,29.42
2022-10-01T23:45:09.398Z,32.85
2022-10-01T23:47:47.015Z,36.40
2022-10-01T23:50:30.831Z,43.15
2022-10-01T23:53:22.523Z,46.65
2022-10-01T23:58:58.757Z,64.35
